Time;durP1;ratioP1;P1;durP2;ratioP2;P2;SDS_P1;SDS_P2;PMS_P1;PMS_P2;Temp;Humidity;BMP_temperature;BMP_pressure;BME280_temperature;BME280_humidity;BME280_pressure;Samples;Min_cycle;Max_cycle;Signal;HPM_P1;HPM_P2
2021/10/15 00:00:38;;;;;;;6.80;6.10;;;8.10;99.90;;;;;;4948522;28;20185;-51
2021/10/15 00:03:03;;;;;;;6.47;5.83;;;8.30;99.90;;;;;;4949158;28;20181;-51
2021/10/15 00:05:29;;;;;;;7.37;5.97;;;8.30;99.90;;;;;;4948852;28;20250;-51
2021/10/15 00:07:55;;;;;;;6.70;6.10;;;8.40;99.90;;;;;;4957399;28;20200;-51
2021/10/15 00:10:21;;;;;;;7.03;5.90;;;8.10;99.90;;;;;;4950809;28;20217;-51
2021/10/15 00:12:47;;;;;;;7.40;6.03;;;8.20;99.90;;;;;;4954333;28;20185;-51
2021/10/15 00:15:12;;;;;;;7.13;6.40;;;8.10;99.90;;;;;;4952870;28;20192;-53
2021/10/15 00:17:38;;;;;;;6.30;5.37;;;7.90;99.90;;;;;;4950244;28;20260;-52
2021/10/15 00:20:05;;;;;;;6.43;5.83;;;8.00;99.90;;;;;;4951395;28;20213;-52
2021/10/15 00:22:31;;;;;;;8.13;6.28;;;8.10;99.90;;;;;;4950595;28;20192;-52
2021/10/15 00:24:56;;;;;;;6.90;6.30;;;8.10;99.90;;;;;;4950854;28;20189;-51
2021/10/15 00:27:22;;;;;;;6.80;6.20;;;7.80;99.90;;;;;;4953801;28;20657;-52
2021/10/15 00:29:48;;;;;;;7.60;5.93;;;7.90;99.90;;;;;;4953085;28;20220;-52
2021/10/15 00:32:13;;;;;;;6.60;5.93;;;7.60;99.90;;;;;;4958475;28;20271;-51
2021/10/15 00:34:39;;;;;;;7.80;5.90;;;8.20;99.90;;;;;;4960851;28;20271;-52
2021/10/15 00:37:05;;;;;;;7.60;6.17;;;7.90;99.90;;;;;;4954181;28;20197;-52
2021/10/15 00:39:31;;;;;;;7.88;6.57;;;8.00;99.90;;;;;;4951704;28;20275;-52
2021/10/15 00:41:56;;;;;;;9.23;8.23;;;7.70;99.90;;;;;;4952464;28;20223;-52
2021/10/15 00:44:22;;;;;;;7.13;5.97;;;7.50;99.90;;;;;;4957023;28;20185;-52
2021/10/15 00:46:48;;;;;;;7.73;6.30;;;7.20;99.90;;;;;;4955083;28;20600;-52
2021/10/15 00:49:15;;;;;;;7.67;6.90;;;7.50;99.90;;;;;;4953686;28;20590;-51
2021/10/15 00:51:43;;;;;;;9.05;7.45;;;7.30;99.90;;;;;;4959863;28;20494;-51
2021/10/15 00:54:11;;;;;;;9.45;7.72;;;7.40;99.90;;;;;;4955851;28;20277;-51
2021/10/15 00:56:37;;;;;;;8.80;6.95;;;7.50;99.90;;;;;;4956030;28;20659;-52
2021/10/15 00:59:02;;;;;;;9.17;7.03;;;7.80;99.90;;;;;;4954350;28;20279;-52
2021/10/15 01:01:29;;;;;;;8.17;5.93;;;7.50;99.90;;;;;;4958845;28;20199;-51
2021/10/15 01:03:59;;;;;;;7.00;6.25;;;7.70;99.90;;;;;;4947447;28;20199;-51
2021/10/15 01:06:25;;;;;;;6.55;5.90;;;7.80;99.90;;;;;;4953633;28;20188;-52
2021/10/15 01:08:51;;;;;;;7.28;5.50;;;7.60;99.90;;;;;;4951459;28;20217;-52
2021/10/15 01:11:17;;;;;;;6.40;5.53;;;7.50;99.90;;;;;;4955065;28;20191;-52
2021/10/15 01:13:44;;;;;;;7.45;6.70;;;7.30;99.90;;;;;;4952536;28;20226;-51
2021/10/15 01:16:11;;;;;;;8.00;7.00;;;7.30;99.90;;;;;;4962700;28;20238;-51
2021/10/15 01:18:38;;;;;;;7.43;6.70;;;7.50;99.90;;;;;;4964576;28;20209;-51
2021/10/15 01:21:09;;;;;;;6.63;5.93;;;7.40;99.90;;;;;;4958389;28;20223;-51
2021/10/15 01:23:35;;;;;;;7.72;6.53;;;7.30;99.90;;;;;;4954190;28;20227;-52
2021/10/15 01:26:02;;;;;;;7.93;6.82;;;7.30;99.90;;;;;;4959115;28;20205;-52
2021/10/15 01:28:29;;;;;;;7.57;6.20;;;7.20;99.90;;;;;;4954040;28;20207;-51
2021/10/15 01:30:55;;;;;;;7.30;6.55;;;7.30;99.90;;;;;;4955336;28;20602;-52
2021/10/15 01:33:21;;;;;;;6.43;5.70;;;7.40;99.90;;;;;;4953307;28;20223;-52
2021/10/15 01:35:46;;;;;;;7.83;6.00;;;7.10;99.90;;;;;;4953806;28;20613;-52
2021/10/15 01:38:12;;;;;;;6.30;5.70;;;7.20;99.90;;;;;;4953890;28;20665;-52
2021/10/15 01:40:38;;;;;;;8.35;7.05;;;7.00;99.90;;;;;;4952858;28;20235;-52
2021/10/15 01:43:04;;;;;;;6.53;5.80;;;7.50;99.90;;;;;;4951889;28;20195;-52
2021/10/15 01:45:31;;;;;;;8.35;6.50;;;7.40;99.90;;;;;;4951639;28;20223;-52
2021/10/15 01:47:58;;;;;;;7.22;6.05;;;7.40;99.90;;;;;;4955655;28;20220;-52
2021/10/15 01:50:25;;;;;;;6.57;5.88;;;7.40;99.90;;;;;;4953448;28;20224;-52
2021/10/15 01:52:52;;;;;;;7.40;6.45;;;7.30;99.90;;;;;;4953513;28;20213;-53
2021/10/15 01:55:19;;;;;;;6.72;6.00;;;7.20;99.90;;;;;;4956524;28;20189;-52
2021/10/15 01:57:45;;;;;;;8.52;7.82;;;7.20;99.90;;;;;;4954915;28;20520;-52
2021/10/15 02:00:12;;;;;;;7.82;7.03;;;7.00;99.90;;;;;;4950115;28;20212;-51
2021/10/15 02:02:39;;;;;;;8.25;7.13;;;6.80;99.90;;;;;;4951244;28;20235;-52
2021/10/15 02:05:07;;;;;;;8.13;7.25;;;6.80;99.90;;;;;;4951753;28;20721;-52
2021/10/15 02:07:33;;;;;;;7.25;6.47;;;6.90;99.90;;;;;;4954917;28;20272;-51
2021/10/15 02:09:58;;;;;;;8.47;5.80;;;7.00;99.90;;;;;;4960563;28;20697;-52
2021/10/15 02:12:24;;;;;;;6.93;6.20;;;7.10;99.90;;;;;;4958753;28;20519;-52
2021/10/15 02:14:49;;;;;;;7.87;6.23;;;6.90;99.90;;;;;;4952172;28;20187;-52
2021/10/15 02:17:15;;;;;;;7.17;6.10;;;6.90;99.90;;;;;;4951795;28;20193;-51
2021/10/15 02:19:41;;;;;;;6.23;5.60;;;7.10;99.90;;;;;;4954338;28;20302;-52
2021/10/15 02:22:06;;;;;;;6.30;5.70;;;6.90;99.90;;;;;;4949660;28;20197;-52
2021/10/15 02:24:32;;;;;;;5.97;5.43;;;6.80;99.90;;;;;;4945386;28;20231;-52
2021/10/15 02:26:58;;;;;;;7.10;6.00;;;6.90;99.90;;;;;;4951778;28;20448;-52
2021/10/15 02:29:23;;;;;;;7.27;6.60;;;6.80;99.90;;;;;;4952946;29;20828;-52
2021/10/15 02:31:49;;;;;;;9.03;6.60;;;6.70;99.90;;;;;;4963585;28;20192;-53
2021/10/15 02:34:17;;;;;;;7.17;5.80;;;6.80;99.90;;;;;;4952473;28;20202;-53
2021/10/15 02:36:42;;;;;;;7.93;6.57;;;7.00;99.90;;;;;;4947508;28;20458;-53
2021/10/15 02:39:08;;;;;;;6.53;5.77;;;7.00;99.90;;;;;;4951533;28;20641;-53
2021/10/15 02:41:37;;;;;;;7.57;6.67;;;7.00;99.90;;;;;;4950926;28;20189;-53
2021/10/15 02:44:07;;;;;;;8.95;6.50;;;7.00;99.90;;;;;;4951873;28;20200;-53
2021/10/15 02:46:33;;;;;;;7.18;5.72;;;7.20;99.90;;;;;;4945696;28;20198;-51
2021/10/15 02:48:58;;;;;;;6.10;5.47;;;6.90;99.90;;;;;;4953780;28;20216;-52
2021/10/15 02:51:24;;;;;;;6.00;5.43;;;7.10;99.90;;;;;;4956349;28;20189;-52
2021/10/15 02:53:50;;;;;;;7.53;6.10;;;7.10;99.90;;;;;;4951235;28;20457;-52
2021/10/15 02:56:15;;;;;;;6.60;5.90;;;6.70;99.90;;;;;;4953228;28;20185;-52
2021/10/15 02:58:41;;;;;;;5.97;5.37;;;6.90;99.90;;;;;;4959785;28;20216;-52
2021/10/15 03:01:06;;;;;;;7.13;5.77;;;7.30;99.90;;;;;;4953338;28;20676;-52
2021/10/15 03:03:32;;;;;;;7.10;5.30;;;7.10;99.90;;;;;;4950828;28;20243;-52
2021/10/15 03:05:58;;;;;;;6.67;6.07;;;7.10;99.90;;;;;;4952466;28;20677;-52
2021/10/15 03:08:23;;;;;;;7.33;5.80;;;7.00;99.90;;;;;;4956238;28;21248;-53
2021/10/15 03:10:49;;;;;;;6.20;5.70;;;6.90;99.90;;;;;;4953233;28;20203;-52
2021/10/15 03:13:15;;;;;;;8.03;6.30;;;7.30;99.90;;;;;;4953118;28;20205;-53
2021/10/15 03:15:40;;;;;;;7.00;5.93;;;7.20;99.90;;;;;;4954590;28;20177;-53
2021/10/15 03:18:06;;;;;;;8.33;6.27;;;7.20;99.90;;;;;;4951880;28;20262;-52
2021/10/15 03:20:32;;;;;;;7.10;5.27;;;7.20;99.90;;;;;;4953885;28;20194;-53
2021/10/15 03:22:58;;;;;;;6.70;5.43;;;7.10;99.90;;;;;;4955698;28;20200;-53
2021/10/15 03:25:23;;;;;;;8.80;5.70;;;7.20;99.90;;;;;;4952844;28;20550;-52
2021/10/15 03:27:49;;;;;;;8.07;5.43;;;7.20;99.90;;;;;;4951137;28;20491;-52
2021/10/15 03:30:14;;;;;;;6.97;5.80;;;6.70;99.90;;;;;;4948795;28;21020;-52
2021/10/15 03:32:40;;;;;;;6.30;5.30;;;7.10;99.90;;;;;;4950604;28;20191;-52
2021/10/15 03:35:07;;;;;;;7.07;6.23;;;6.70;99.90;;;;;;4952539;28;20218;-52
2021/10/15 03:37:32;;;;;;;7.15;5.28;;;6.90;99.90;;;;;;4954184;28;20203;-52
2021/10/15 03:39:58;;;;;;;5.57;4.90;;;6.70;99.90;;;;;;4953213;28;20212;-52
2021/10/15 03:42:24;;;;;;;6.00;5.40;;;6.60;99.90;;;;;;4944674;29;20189;-52
2021/10/15 03:44:49;;;;;;;6.17;5.57;;;6.50;99.90;;;;;;4950850;28;20678;-53
2021/10/15 03:47:15;;;;;;;9.20;5.67;;;6.90;99.90;;;;;;4952123;28;20201;-52
2021/10/15 03:49:40;;;;;;;7.20;6.10;;;6.80;99.90;;;;;;4950238;28;20216;-52
2021/10/15 03:52:06;;;;;;;6.77;6.07;;;6.70;99.90;;;;;;4953337;28;20252;-52
2021/10/15 03:54:32;;;;;;;6.90;6.17;;;6.80;99.90;;;;;;4951198;28;20564;-52
2021/10/15 03:56:57;;;;;;;6.13;5.50;;;6.60;99.90;;;;;;4943232;28;20202;-52
2021/10/15 03:59:23;;;;;;;6.03;5.53;;;6.70;99.90;;;;;;4952655;28;20689;-52
2021/10/15 04:01:48;;;;;;;7.83;6.17;;;6.60;99.90;;;;;;4953118;28;20720;-52
2021/10/15 04:04:14;;;;;;;7.17;6.50;;;7.00;99.90;;;;;;4956990;28;20244;-52
2021/10/15 04:06:40;;;;;;;6.80;6.07;;;7.00;99.90;;;;;;4965396;28;20200;-52
2021/10/15 04:09:06;;;;;;;7.03;6.33;;;6.50;99.90;;;;;;4954488;28;20578;-52
2021/10/15 04:11:31;;;;;;;9.20;7.27;;;6.60;99.90;;;;;;4958694;28;20200;-53
2021/10/15 04:13:58;;;;;;;7.73;5.83;;;6.90;99.90;;;;;;4959294;28;20437;-52
2021/10/15 04:16:24;;;;;;;7.28;6.55;;;6.80;99.90;;;;;;4956378;28;20196;-52
2021/10/15 04:18:50;;;;;;;6.57;5.50;;;6.40;99.90;;;;;;4955682;28;20247;-53
2021/10/15 04:21:15;;;;;;;6.60;5.87;;;6.90;99.90;;;;;;4954105;28;20447;-52
2021/10/15 04:23:41;;;;;;;7.13;6.40;;;7.10;99.90;;;;;;4957074;28;20199;-53
2021/10/15 04:26:07;;;;;;;7.70;6.30;;;7.10;99.90;;;;;;4959681;28;20574;-53
2021/10/15 04:28:33;;;;;;;6.70;5.70;;;7.10;99.90;;;;;;4956594;28;20290;-52
2021/10/15 04:30:59;;;;;;;7.32;6.63;;;7.10;99.90;;;;;;4959695;28;20230;-52
2021/10/15 04:33:25;;;;;;;6.77;6.03;;;7.30;99.90;;;;;;4954460;28;20672;-52
2021/10/15 04:35:50;;;;;;;6.80;6.20;;;7.00;99.90;;;;;;4956978;28;20203;-52
2021/10/15 04:38:16;;;;;;;8.80;6.77;;;7.00;99.90;;;;;;4959819;28;20961;-52
2021/10/15 04:40:41;;;;;;;8.53;6.57;;;6.90;99.90;;;;;;4953551;28;20189;-52
2021/10/15 04:43:07;;;;;;;6.80;5.73;;;7.00;99.90;;;;;;4955174;28;20268;-52
2021/10/15 04:45:33;;;;;;;7.80;6.30;;;7.00;99.90;;;;;;4954373;28;20271;-52
2021/10/15 04:47:58;;;;;;;7.67;6.97;;;7.10;99.90;;;;;;4955570;28;20212;-52
2021/10/15 04:50:24;;;;;;;8.20;6.87;;;6.50;99.90;;;;;;4954846;28;20211;-52
2021/10/15 04:52:49;;;;;;;6.83;5.90;;;6.80;99.90;;;;;;4957006;28;20181;-52
2021/10/15 04:55:15;;;;;;;7.23;6.13;;;6.90;99.90;;;;;;4952895;28;20654;-52
2021/10/15 04:57:41;;;;;;;7.23;6.47;;;7.10;99.90;;;;;;4952899;28;20188;-52
2021/10/15 05:00:08;;;;;;;6.80;6.10;;;7.00;99.90;;;;;;4951813;28;20240;-53
2021/10/15 05:02:40;;;;;;;7.13;6.43;;;6.80;99.90;;;;;;4961616;28;20186;-52
2021/10/15 05:05:08;;;;;;;7.97;6.15;;;6.70;99.90;;;;;;4952198;28;20280;-52
2021/10/15 05:07:38;;;;;;;8.05;6.43;;;6.90;99.90;;;;;;4954980;28;20643;-52
2021/10/15 05:10:04;;;;;;;6.75;6.10;;;7.00;99.90;;;;;;4954278;28;20219;-52
2021/10/15 05:12:30;;;;;;;8.18;5.93;;;7.10;99.90;;;;;;4957449;28;20177;-52
2021/10/15 05:14:56;;;;;;;7.53;5.97;;;6.80;99.90;;;;;;4951673;28;20201;-52
2021/10/15 05:17:22;;;;;;;7.30;6.37;;;6.40;99.90;;;;;;4952672;28;20181;-52
2021/10/15 05:19:47;;;;;;;7.60;6.27;;;6.90;99.90;;;;;;4952907;28;20486;-52
2021/10/15 05:22:13;;;;;;;8.27;6.27;;;7.00;99.90;;;;;;4950927;28;20199;-53
2021/10/15 05:24:39;;;;;;;7.20;6.60;;;6.80;99.90;;;;;;4952065;28;20193;-52
2021/10/15 05:27:05;;;;;;;8.02;5.57;;;7.00;99.90;;;;;;4953319;28;20224;-52
2021/10/15 05:29:31;;;;;;;6.80;5.67;;;6.40;99.90;;;;;;4953381;28;20331;-50
2021/10/15 05:31:56;;;;;;;7.40;5.60;;;6.90;99.90;;;;;;4950474;28;20182;-50
2021/10/15 05:34:22;;;;;;;7.97;5.87;;;6.80;99.90;;;;;;4948839;28;20189;-51
2021/10/15 05:36:48;;;;;;;7.80;6.50;;;6.80;99.90;;;;;;4953907;28;20451;-51
2021/10/15 05:39:14;;;;;;;8.60;6.60;;;6.90;99.90;;;;;;4949876;28;20506;-51
2021/10/15 05:41:40;;;;;;;7.88;5.60;;;6.70;99.90;;;;;;4952495;28;20455;-51
2021/10/15 05:44:06;;;;;;;8.60;7.00;;;7.20;99.90;;;;;;4953412;28;20193;-53
2021/10/15 05:46:31;;;;;;;8.20;7.40;;;7.00;99.90;;;;;;4952722;28;20188;-51
2021/10/15 05:48:57;;;;;;;7.70;6.30;;;6.90;99.90;;;;;;4953407;28;20233;-51
2021/10/15 05:51:24;;;;;;;7.00;6.30;;;7.10;99.90;;;;;;4951880;28;20561;-51
2021/10/15 05:53:52;;;;;;;8.27;6.60;;;6.90;99.90;;;;;;4951612;28;20185;-51
2021/10/15 05:59:05;;;;;;;6.88;6.20;;;7.40;99.90;;;;;;4953768;28;20219;-50
2021/10/15 06:01:33;;;;;;;8.75;6.60;;;7.10;99.90;;;;;;4952538;28;20199;-51
2021/10/15 06:04:59;;;;;;;7.18;6.43;;;7.10;99.90;;;;;;4952876;28;20672;-52
2021/10/15 06:14:03;;;;;;;10.23;7.45;;;7.60;99.90;;;;;;4951178;28;20302;-51
2021/10/15 06:15:14;;;;;;;7.18;6.53;;;7.30;99.90;;;;;;4947103;28;20232;-53
2021/10/15 06:17:43;;;;;;;7.40;6.63;;;7.30;99.90;;;;;;4952600;29;20241;-50
2021/10/15 06:20:13;;;;;;;7.95;6.78;;;7.30;99.90;;;;;;4950020;28;20217;-51
2021/10/15 06:22:39;;;;;;;6.03;5.43;;;7.40;99.90;;;;;;4951086;28;20181;-52
2021/10/15 06:25:05;;;;;;;6.33;5.73;;;7.40;99.90;;;;;;4948579;28;20189;-52
2021/10/15 06:27:30;;;;;;;7.70;6.20;;;7.50;99.90;;;;;;4949539;28;20539;-52
2021/10/15 06:29:57;;;;;;;9.43;6.72;;;7.50;99.90;;;;;;4947269;28;20228;-52
2021/10/15 06:32:23;;;;;;;7.90;6.63;;;7.40;99.90;;;;;;4946790;28;20713;-53
2021/10/15 06:34:49;;;;;;;6.53;5.90;;;7.40;99.90;;;;;;4948238;29;20204;-53
2021/10/15 06:37:17;;;;;;;6.70;5.78;;;7.30;99.90;;;;;;4950648;28;20181;-53
2021/10/15 06:39:42;;;;;;;7.20;6.32;;;7.30;99.90;;;;;;4947806;28;20204;-53
2021/10/15 06:42:08;;;;;;;8.97;6.03;;;7.50;99.90;;;;;;4951418;28;20197;-52
2021/10/15 06:44:34;;;;;;;6.27;5.67;;;7.70;99.90;;;;;;4946862;28;20456;-53
2021/10/15 06:46:59;;;;;;;10.13;6.93;;;7.80;99.90;;;;;;4950356;28;20197;-52
2021/10/15 06:49:25;;;;;;;10.13;7.50;;;7.90;99.90;;;;;;4951691;29;20559;-52
2021/10/15 06:51:51;;;;;;;6.53;5.93;;;7.70;99.90;;;;;;4952718;28;20192;-55
2021/10/15 06:54:17;;;;;;;10.17;6.83;;;7.60;99.90;;;;;;4951050;28;20441;-54
2021/10/15 06:56:43;;;;;;;8.13;7.37;;;7.80;99.90;;;;;;4950842;28;20187;-50
2021/10/15 06:59:08;;;;;;;9.37;6.80;;;7.70;99.90;;;;;;4952143;28;20303;-51
2021/10/15 07:01:34;;;;;;;8.20;7.10;;;8.10;99.90;;;;;;4952617;28;20448;-50
2021/10/15 07:04:01;;;;;;;7.60;6.47;;;8.30;99.90;;;;;;4953101;28;20189;-51
2021/10/15 07:06:27;;;;;;;7.78;6.25;;;8.60;99.90;;;;;;4953152;28;20419;-51
2021/10/15 07:08:53;;;;;;;8.75;7.22;;;8.70;99.90;;;;;;4953655;29;20690;-51
2021/10/15 07:11:19;;;;;;;8.33;6.40;;;8.60;99.90;;;;;;4953512;28;20177;-51
2021/10/15 07:13:45;;;;;;;7.45;5.28;;;8.40;99.90;;;;;;4953362;29;20444;-50
2021/10/15 07:16:11;;;;;;;8.65;7.50;;;8.60;99.90;;;;;;4953125;28;20189;-50
2021/10/15 07:18:39;;;;;;;7.00;6.30;;;8.40;99.90;;;;;;4952271;28;20231;-49
2021/10/15 07:21:08;;;;;;;7.20;6.35;;;8.00;99.90;;;;;;4953425;28;20535;-50
2021/10/15 07:23:34;;;;;;;6.90;6.30;;;8.70;99.90;;;;;;4952262;28;20244;-50
2021/10/15 07:26:01;;;;;;;6.87;6.17;;;8.80;99.90;;;;;;4952942;29;20185;-49
2021/10/15 07:28:27;;;;;;;8.70;7.18;;;8.20;99.90;;;;;;4952816;28;20201;-49
2021/10/15 07:30:54;;;;;;;7.35;6.63;;;9.00;99.90;;;;;;4953164;28;20673;-48
2021/10/15 07:33:20;;;;;;;10.65;8.32;;;9.00;99.90;;;;;;4952060;28;20348;-50
2021/10/15 07:35:46;;;;;;;9.73;7.38;;;8.90;99.90;;;;;;4952779;28;20264;-49
2021/10/15 07:38:12;;;;;;;13.40;7.70;;;9.00;99.90;;;;;;4954157;28;21010;-51
2021/10/15 07:40:37;;;;;;;7.57;6.73;;;9.20;99.90;;;;;;4952985;28;20224;-53
2021/10/15 07:43:03;;;;;;;7.57;6.13;;;9.10;99.90;;;;;;4953064;29;20213;-51
2021/10/15 07:45:29;;;;;;;8.17;6.40;;;9.50;99.90;;;;;;4952499;28;20197;-52
2021/10/15 07:47:55;;;;;;;8.43;7.10;;;9.40;99.90;;;;;;4952298;29;20678;-52
2021/10/15 07:50:21;;;;;;;12.00;11.00;;;9.30;99.90;;;;;;4952030;29;20757;-52
2021/10/15 07:52:47;;;;;;;8.55;5.93;;;9.80;99.90;;;;;;4951606;28;20448;-50
2021/10/15 07:55:13;;;;;;;6.93;6.33;;;10.10;99.90;;;;;;4950858;28;20193;-51
2021/10/15 07:57:39;;;;;;;8.60;7.07;;;10.50;99.90;;;;;;4951369;28;20185;-50
2021/10/15 08:00:07;;;;;;;9.83;6.63;;;10.40;99.90;;;;;;4950416;28;20477;-50
2021/10/15 08:02:33;;;;;;;9.07;6.88;;;10.40;99.90;;;;;;4950587;28;20280;-51
2021/10/15 08:04:59;;;;;;;9.70;7.43;;;10.80;99.90;;;;;;4951497;28;20264;-51
2021/10/15 08:07:25;;;;;;;8.67;7.63;;;10.90;99.90;;;;;;4951260;28;20460;-51
2021/10/15 08:09:51;;;;;;;7.30;6.60;;;10.80;99.90;;;;;;4950448;28;20312;-53
2021/10/15 08:12:17;;;;;;;8.77;7.13;;;10.90;99.90;;;;;;4951288;28;20449;-53
2021/10/15 08:14:43;;;;;;;7.90;7.07;;;11.40;99.90;;;;;;4950584;28;20189;-52
2021/10/15 08:17:10;;;;;;;7.20;6.50;;;11.30;99.90;;;;;;4950448;29;20229;-51
2021/10/15 08:19:36;;;;;;;7.55;6.50;;;11.50;99.90;;;;;;4954476;28;20209;-51
2021/10/15 08:22:03;;;;;;;10.75;7.07;;;11.60;99.90;;;;;;4951002;28;20194;-52
2021/10/15 08:24:29;;;;;;;10.23;7.45;;;11.90;99.90;;;;;;4951286;28;20187;-53
2021/10/15 08:26:55;;;;;;;9.70;8.10;;;12.00;99.90;;;;;;4950414;29;20221;-49
2021/10/15 08:29:22;;;;;;;11.13;8.35;;;11.90;99.90;;;;;;4951686;28;20683;-51
2021/10/15 08:31:50;;;;;;;8.50;7.00;;;11.70;99.90;;;;;;4951921;28;20630;-50
2021/10/15 08:34:17;;;;;;;8.75;7.88;;;12.10;99.90;;;;;;4947783;28;20218;-50
2021/10/15 08:36:44;;;;;;;13.40;8.82;;;12.10;99.90;;;;;;4961120;28;20232;-50
2021/10/15 08:39:11;;;;;;;8.30;7.50;;;12.10;99.90;;;;;;4951556;29;20695;-50
2021/10/15 08:41:37;;;;;;;9.07;7.63;;;12.10;99.90;;;;;;4952540;28;20591;-50
2021/10/15 08:44:04;;;;;;;8.63;7.83;;;12.50;99.90;;;;;;4952114;28;20184;-50
2021/10/15 08:46:31;;;;;;;8.98;7.75;;;12.40;99.90;;;;;;4952396;28;20564;-50
2021/10/15 08:48:57;;;;;;;8.85;7.97;;;12.50;99.90;;;;;;4952057;28;20271;-51
2021/10/15 08:51:23;;;;;;;9.43;6.80;;;12.70;99.90;;;;;;4969310;28;20213;-50
2021/10/15 08:53:52;;;;;;;8.80;7.53;;;12.50;99.90;;;;;;4955393;29;20191;-51
2021/10/15 08:56:19;;;;;;;10.55;8.60;;;12.70;99.90;;;;;;4955375;28;20223;-52
2021/10/15 08:58:47;;;;;;;9.05;8.00;;;12.80;99.90;;;;;;4953391;28;20292;-50
2021/10/15 09:01:14;;;;;;;8.73;7.93;;;12.60;99.90;;;;;;4955038;28;20653;-50
2021/10/15 09:03:39;;;;;;;11.35;8.25;;;13.00;99.90;;;;;;4955509;28;20248;-50
2021/10/15 09:06:08;;;;;;;11.87;8.83;;;12.70;99.60;;;;;;4955589;28;20188;-51
2021/10/15 09:08:53;;;;;;;11.10;7.22;;;13.10;99.50;;;;;;4956082;28;20487;-50
2021/10/15 09:11:35;;;;;;;9.40;8.10;;;13.00;99.20;;;;;;4955865;28;20272;-49
2021/10/15 09:14:17;;;;;;;8.93;6.88;;;13.20;98.90;;;;;;4956172;29;20193;-49
2021/10/15 09:17:03;;;;;;;8.70;7.50;;;13.00;98.60;;;;;;4956282;28;20252;-51
2021/10/15 09:19:32;;;;;;;12.60;8.30;;;13.20;99.00;;;;;;4951747;29;20242;-50
2021/10/15 09:22:13;;;;;;;8.70;7.90;;;13.40;98.70;;;;;;4956799;28;20333;-51
2021/10/15 09:24:41;;;;;;;9.10;7.57;;;13.40;99.50;;;;;;4955557;28;20651;-51
2021/10/15 09:27:22;;;;;;;8.30;7.50;;;13.50;99.30;;;;;;4959652;28;20185;-50
2021/10/15 09:30:02;;;;;;;8.82;7.15;;;13.80;98.20;;;;;;4955741;29;20204;-50
2021/10/15 09:32:32;;;;;;;9.32;8.40;;;13.60;98.10;;;;;;4950052;28;20188;-51
2021/10/15 09:34:58;;;;;;;8.10;7.22;;;13.90;98.50;;;;;;4955093;28;20296;-51
2021/10/15 09:37:33;;;;;;;9.05;7.80;;;13.80;98.60;;;;;;4955551;29;20180;-51
2021/10/15 09:40:04;;;;;;;11.95;7.63;;;14.00;98.80;;;;;;4964802;28;20248;-51
2021/10/15 09:42:31;;;;;;;9.57;6.95;;;14.50;98.80;;;;;;4955591;28;20185;-52
2021/10/15 09:45:12;;;;;;;8.40;7.60;;;14.40;96.90;;;;;;4959319;28;20195;-51
2021/10/15 09:47:38;;;;;;;7.43;6.65;;;14.40;96.60;;;;;;4954234;29;20646;-52
2021/10/15 09:50:07;;;;;;;8.10;7.40;;;14.60;96.80;;;;;;4954973;28;20227;-51
2021/10/15 09:52:37;;;;;;;9.60;7.05;;;14.80;96.20;;;;;;4954818;28;20441;-51
2021/10/15 09:55:33;;;;;;;7.25;6.55;;;15.20;95.60;;;;;;4956740;28;20733;-51
2021/10/15 09:58:20;;;;;;;7.43;6.63;;;15.90;94.00;;;;;;4952792;28;20216;-51
2021/10/15 10:00:51;;;;;;;8.93;7.05;;;16.40;93.50;;;;;;4951836;28;20189;-51
2021/10/15 10:03:18;;;;;;;8.13;7.32;;;16.40;92.80;;;;;;4952619;29;20196;-53
2021/10/15 10:05:44;;;;;;;8.63;6.35;;;16.10;92.90;;;;;;4953429;28;20192;-53
2021/10/15 10:08:11;;;;;;;8.27;7.47;;;16.30;92.90;;;;;;4949490;28;20248;-52
2021/10/15 10:10:38;;;;;;;6.63;5.93;;;16.40;92.80;;;;;;4952145;28;20209;-53
2021/10/15 10:13:05;;;;;;;9.55;6.82;;;16.60;94.00;;;;;;4957232;28;20266;-53
2021/10/15 10:15:34;;;;;;;8.35;7.65;;;16.70;93.40;;;;;;4952164;28;20186;-53
2021/10/15 10:18:31;;;;;;;6.20;5.60;;;17.00;93.60;;;;;;4954507;28;20557;-53
2021/10/15 10:21:26;;;;;;;5.78;3.88;;;17.20;92.30;;;;;;4958395;28;20185;-53
2021/10/15 10:24:06;;;;;;;7.72;6.88;;;17.30;91.70;;;;;;4953511;28;20181;-53
2021/10/15 10:26:50;;;;;;;8.70;7.15;;;17.50;92.00;;;;;;4955968;28;20284;-53
2021/10/15 10:29:16;;;;;;;5.60;5.10;;;17.50;91.70;;;;;;4954063;28;20519;-53
2021/10/15 10:31:42;;;;;;;9.15;4.32;;;17.60;91.40;;;;;;4954544;28;20185;-53
2021/10/15 10:34:14;;;;;;;3.55;3.30;;;17.60;90.90;;;;;;4955583;28;20186;-53
2021/10/15 10:36:40;;;;;;;4.55;4.10;;;17.60;90.00;;;;;;4942529;28;20675;-53
2021/10/15 10:39:19;;;;;;;6.07;4.50;;;17.00;90.70;;;;;;4952676;28;20205;-53
2021/10/15 10:42:20;;;;;;;6.40;5.80;;;16.60;91.50;;;;;;4946069;28;20215;-53
2021/10/15 10:44:49;;;;;;;5.47;4.45;;;16.50;91.70;;;;;;4945798;28;20568;-53
2021/10/15 10:47:26;;;;;;;8.05;6.07;;;17.10;91.30;;;;;;4948351;28;20719;-53
2021/10/15 10:50:09;;;;;;;5.40;4.90;;;17.50;90.50;;;;;;4951898;28;20226;-52
2021/10/15 10:52:45;;;;;;;5.50;4.95;;;18.40;88.00;;;;;;4952264;28;20207;-52
2021/10/15 10:55:30;;;;;;;6.15;4.95;;;18.90;85.70;;;;;;4951494;29;20708;-51
2021/10/15 10:57:56;;;;;;;4.55;4.10;;;19.30;83.40;;;;;;4952192;28;20184;-51
2021/10/15 11:00:24;;;;;;;5.30;4.80;;;19.50;82.80;;;;;;4954167;28;20283;-49
2021/10/15 11:02:51;;;;;;;5.20;4.70;;;19.30;82.70;;;;;;4965778;28;20193;-53
2021/10/15 11:05:39;;;;;;;5.90;5.28;;;19.00;83.80;;;;;;4952794;28;20204;-53
2021/10/15 11:08:34;;;;;;;7.20;5.57;;;18.80;84.90;;;;;;4962255;28;20219;-53
2021/10/15 11:11:23;;;;;;;5.82;5.22;;;18.70;84.60;;;;;;4950229;28;20570;-51
2021/10/15 11:13:49;;;;;;;7.93;4.85;;;18.50;84.80;;;;;;4945550;28;20548;-50
2021/10/15 11:16:26;;;;;;;5.30;4.90;;;18.40;85.70;;;;;;4956143;28;20187;-52
2021/10/15 11:18:52;;;;;;;6.18;5.22;;;18.60;85.70;;;;;;4952168;28;20878;-52
2021/10/15 11:21:20;;;;;;;6.18;5.60;;;18.70;85.20;;;;;;4952168;28;20297;-50
2021/10/15 11:23:47;;;;;;;5.72;5.13;;;18.60;85.70;;;;;;4949776;29;20577;-52
2021/10/15 11:26:13;;;;;;;5.15;4.65;;;18.20;86.30;;;;;;4952994;28;20188;-52
2021/10/15 11:28:39;;;;;;;5.43;4.93;;;18.30;86.50;;;;;;4952103;29;20232;-51
2021/10/15 11:31:08;;;;;;;9.63;5.90;;;18.40;86.20;;;;;;4951926;28;20223;-51
2021/10/15 11:33:38;;;;;;;8.57;5.80;;;18.30;85.90;;;;;;4952649;28;20283;-53
2021/10/15 11:36:05;;;;;;;8.35;5.78;;;18.20;87.40;;;;;;4952922;28;20188;-51
2021/10/15 11:38:31;;;;;;;5.40;4.90;;;18.30;87.60;;;;;;4950834;29;20737;-50
2021/10/15 11:40:59;;;;;;;5.25;4.78;;;18.10;85.90;;;;;;4947960;28;20211;-51
2021/10/15 11:43:31;;;;;;;7.28;5.50;;;18.10;86.50;;;;;;4950772;28;20191;-50
2021/10/15 11:45:58;;;;;;;4.90;4.50;;;17.70;86.90;;;;;;4951028;28;20251;-52
2021/10/15 11:48:36;;;;;;;6.18;5.28;;;17.80;87.90;;;;;;4946555;28;20205;-52
2021/10/15 11:51:05;;;;;;;4.20;3.40;;;17.70;87.30;;;;;;4949975;29;20649;-51
2021/10/15 11:53:33;;;;;;;3.70;3.40;;;17.70;87.40;;;;;;4951119;28;20288;-51
2021/10/15 11:56:03;;;;;;;4.00;3.40;;;17.40;86.60;;;;;;4950734;28;20185;-51
2021/10/15 11:58:41;;;;;;;3.50;3.20;;;17.50;87.70;;;;;;4951734;28;20205;-52
2021/10/15 12:01:09;;;;;;;3.90;3.50;;;17.40;88.90;;;;;;4951319;28;20187;-50
2021/10/15 12:04:02;;;;;;;4.30;3.90;;;17.60;88.60;;;;;;4950965;28;20182;-50
2021/10/15 12:06:39;;;;;;;3.63;3.33;;;17.70;88.20;;;;;;4950287;28;20665;-50
2021/10/15 12:09:10;;;;;;;3.05;2.72;;;17.80;87.90;;;;;;4954739;28;20282;-55
2021/10/15 12:11:40;;;;;;;6.07;4.03;;;17.60;88.50;;;;;;4955947;28;20189;-53
2021/10/15 12:14:05;;;;;;;3.60;3.30;;;17.90;88.90;;;;;;4951822;28;20189;-51
2021/10/15 12:16:34;;;;;;;4.50;3.63;;;17.60;88.80;;;;;;4956779;28;20545;-52
2021/10/15 12:19:07;;;;;;;5.13;4.00;;;17.60;88.70;;;;;;4951674;28;20690;-53
2021/10/15 12:21:42;;;;;;;3.60;3.30;;;17.20;90.00;;;;;;4949826;29;20274;-53
2021/10/15 12:24:11;;;;;;;6.28;4.10;;;17.40;90.10;;;;;;4943577;28;20203;-52
2021/10/15 12:26:38;;;;;;;3.90;3.60;;;17.50;90.10;;;;;;4952329;29;20248;-53
2021/10/15 12:29:04;;;;;;;5.40;3.90;;;17.50;90.20;;;;;;4952903;28;20296;-53
2021/10/15 12:31:35;;;;;;;3.88;3.58;;;17.40;90.30;;;;;;4954196;28;20194;-53
2021/10/15 12:34:09;;;;;;;4.13;3.72;;;17.50;90.40;;;;;;4954767;28;20618;-53
2021/10/15 12:36:37;;;;;;;4.32;3.95;;;17.40;90.30;;;;;;4951904;29;20526;-53
2021/10/15 12:39:19;;;;;;;6.20;4.75;;;17.50;89.90;;;;;;4953247;28;20209;-53
2021/10/15 12:41:45;;;;;;;4.95;4.53;;;17.60;89.70;;;;;;4952867;28;20185;-53
2021/10/15 12:44:37;;;;;;;4.63;3.73;;;17.80;89.40;;;;;;4953924;28;20668;-53
2021/10/15 12:47:05;;;;;;;3.80;3.50;;;17.50;89.30;;;;;;4951128;29;20932;-53
2021/10/15 12:49:58;;;;;;;4.53;4.13;;;17.50;90.30;;;;;;4954219;28;20267;-53
2021/10/15 12:52:35;;;;;;;5.35;3.90;;;17.50;90.30;;;;;;4955694;28;20271;-53
2021/10/15 12:55:25;;;;;;;4.22;3.83;;;17.60;90.00;;;;;;4953870;28;20181;-53
2021/10/15 12:58:00;;;;;;;5.35;4.68;;;17.90;90.40;;;;;;4954271;28;20185;-51
2021/10/15 13:00:26;;;;;;;5.68;3.63;;;17.50;89.70;;;;;;4954698;28;20184;-50
2021/10/15 13:03:02;;;;;;;4.50;4.10;;;17.40;90.20;;;;;;4954071;28;20328;-52
2021/10/15 13:05:28;;;;;;;4.25;3.95;;;17.20;90.50;;;;;;4958105;28;20198;-51
2021/10/15 13:07:54;;;;;;;5.10;4.05;;;17.10;90.80;;;;;;4953104;28;20205;-51